Time;durP1;ratioP1;P1;durP2;ratioP2;P2;SDS_P1;SDS_P2;PMS_P1;PMS_P2;Temp;Humidity;BMP_temperature;BMP_pressure;BME280_temperature;BME280_humidity;BME280_pressure;Samples;Min_cycle;Max_cycle;Signal;HPM_P1;HPM_P2
2022/12/17 13:06:25;;;;;;;32.83;24.70;;;-3.10;98.60;;;;;;5037931;28;20243;-85
2022/12/17 13:09:03;;;;;;;34.53;23.53;;;-3.10;98.40;;;;;;5038045;28;20188;-85
2022/12/17 13:11:35;;;;;;;34.77;24.03;;;-3.00;98.70;;;;;;5039537;28;20187;-83
2022/12/17 13:14:09;;;;;;;30.23;23.63;;;-2.90;97.50;;;;;;5042916;28;20439;-83
2022/12/17 13:16:47;;;;;;;32.07;22.03;;;-2.90;96.90;;;;;;5054324;28;20231;-85
2022/12/17 13:19:38;;;;;;;28.93;21.33;;;-2.90;96.00;;;;;;5040128;28;20193;-83
2022/12/17 13:22:16;;;;;;;48.00;34.97;;;-3.00;96.80;;;;;;5039966;28;20181;-83
2022/12/17 13:24:44;;;;;;;32.23;23.67;;;-3.10;97.70;;;;;;5038900;28;20207;-82
2022/12/17 13:27:46;;;;;;;31.40;25.10;;;-3.20;98.20;;;;;;5040451;28;20192;-85
2022/12/17 13:30:17;;;;;;;37.43;23.03;;;-3.40;99.10;;;;;;4970763;28;20191;-86
2022/12/17 13:33:08;;;;;;;28.43;23.87;;;-3.50;99.90;;;;;;5027808;28;20205;-82
2022/12/17 13:36:00;;;;;;;34.40;23.97;;;-3.40;99.90;;;;;;5039027;28;20220;-83
2022/12/17 13:38:44;;;;;;;32.30;23.90;;;-3.40;99.90;;;;;;5043873;28;20219;-84
2022/12/17 13:41:15;;;;;;;33.87;23.83;;;-3.30;99.90;;;;;;5046805;28;20192;-86
2022/12/17 13:43:53;;;;;;;35.00;23.47;;;-3.40;99.90;;;;;;5049710;28;20196;-85
2022/12/17 13:46:20;;;;;;;37.40;25.03;;;-3.40;99.90;;;;;;5046961;28;20227;-85
2022/12/17 13:49:01;;;;;;;33.67;21.73;;;-3.30;99.90;;;;;;5036866;28;20196;-82
2022/12/17 13:51:32;;;;;;;29.67;22.17;;;-3.20;99.90;;;;;;5037030;28;20192;-84
2022/12/17 13:54:03;;;;;;;30.27;22.93;;;-3.20;99.90;;;;;;5037017;28;20651;-84
2022/12/17 13:56:35;;;;;;;34.63;24.53;;;-3.20;99.90;;;;;;5037114;28;20221;-84
2022/12/17 13:59:03;;;;;;;34.27;23.93;;;-3.20;99.90;;;;;;5037762;28;20196;-85
2022/12/17 14:01:30;;;;;;;33.10;24.70;;;-3.30;99.90;;;;;;5041543;28;20195;-83
2022/12/17 14:03:58;;;;;;;33.70;23.37;;;-3.20;99.90;;;;;;5041109;28;20339;-84
2022/12/17 14:06:28;;;;;;;31.37;23.60;;;-3.20;99.90;;;;;;5035822;28;20251;-81
2022/12/17 14:08:56;;;;;;;31.37;22.47;;;-3.30;99.90;;;;;;5038674;28;20196;-83
2022/12/17 14:12:23;;;;;;;29.10;23.20;;;-3.20;99.90;;;;;;5053905;28;20197;-84
2022/12/17 14:14:23;;;;;;;32.73;22.23;;;-3.00;99.90;;;;;;5030868;28;20200;-84
2022/12/17 14:16:49;;;;;;;33.33;25.60;;;-3.00;99.70;;;;;;5041728;28;20204;-83
2022/12/17 14:19:15;;;;;;;33.97;24.67;;;-3.00;99.90;;;;;;5040923;28;20243;-82
2022/12/17 14:21:40;;;;;;;33.90;26.33;;;-3.10;99.90;;;;;;5039587;28;20192;-84
2022/12/17 14:24:12;;;;;;;36.63;24.43;;;-3.20;99.90;;;;;;5036476;28;20196;-84
2022/12/17 14:26:53;;;;;;;29.60;24.97;;;-3.10;99.90;;;;;;5047312;28;20679;-84
2022/12/17 14:29:28;;;;;;;32.17;24.27;;;-3.00;99.90;;;;;;5038846;28;20188;-86
2022/12/17 14:31:56;;;;;;;33.70;24.60;;;-3.00;99.40;;;;;;5037491;28;20188;-85
2022/12/17 14:34:22;;;;;;;34.20;23.50;;;-3.00;99.30;;;;;;5040881;28;20205;-84
2022/12/17 14:36:55;;;;;;;30.10;22.67;;;-3.10;99.60;;;;;;5056465;28;20299;-83
2022/12/17 14:39:26;;;;;;;36.03;26.50;;;-2.90;99.90;;;;;;5040676;28;20219;-85
2022/12/17 14:44:51;;;;;;;29.73;23.73;;;-2.90;98.40;;;;;;5041095;28;20211;-84
2022/12/17 14:47:21;;;;;;;30.20;23.83;;;-2.80;97.70;;;;;;5031936;28;20189;-84
2022/12/17 14:49:53;;;;;;;28.67;23.73;;;-2.80;96.90;;;;;;5040596;28;20259;-83
2022/12/17 14:52:44;;;;;;;32.47;24.97;;;-3.00;97.20;;;;;;5040421;28;20192;-85
2022/12/17 14:55:29;;;;;;;30.97;23.40;;;-3.00;98.60;;;;;;5039713;28;20244;-84
2022/12/17 14:58:07;;;;;;;31.80;24.07;;;-3.10;98.00;;;;;;5035978;28;20200;-84
2022/12/17 15:00:36;;;;;;;29.83;24.57;;;-3.10;98.10;;;;;;5038611;28;20177;-84
2022/12/17 15:03:02;;;;;;;30.53;23.50;;;-3.10;98.60;;;;;;5040255;28;21076;-84
2022/12/17 15:05:28;;;;;;;35.17;26.83;;;-3.20;98.20;;;;;;5040837;28;20227;-83
2022/12/17 15:07:54;;;;;;;32.93;25.33;;;-3.20;98.50;;;;;;5037918;28;20249;-84
2022/12/17 15:10:20;;;;;;;31.23;23.90;;;-3.20;98.90;;;;;;5031059;28;20204;-84
2022/12/17 15:12:50;;;;;;;31.50;23.77;;;-3.20;98.80;;;;;;5040956;28;20649;-84
2022/12/17 15:15:16;;;;;;;42.13;37.57;;;-3.20;98.20;;;;;;5041751;28;20204;-83
2022/12/17 15:17:42;;;;;;;90.43;81.37;;;-3.20;98.60;;;;;;5050748;28;20205;-85
2022/12/17 15:20:16;;;;;;;32.67;28.17;;;-3.20;98.60;;;;;;5046272;28;20658;-83
2022/12/17 15:22:42;;;;;;;33.53;25.87;;;-3.20;98.80;;;;;;5032670;28;20193;-84
2022/12/17 15:25:15;;;;;;;32.07;24.40;;;-3.10;99.00;;;;;;5039479;28;20204;-84
2022/12/17 15:27:41;;;;;;;31.20;24.60;;;-3.10;97.70;;;;;;5040322;28;20189;-84
2022/12/17 15:30:11;;;;;;;34.53;26.93;;;-3.10;97.60;;;;;;5030569;28;20197;-85
2022/12/17 15:32:37;;;;;;;34.43;25.73;;;-3.10;97.50;;;;;;5040462;28;20646;-84
2022/12/17 15:35:03;;;;;;;33.60;24.57;;;-3.20;97.70;;;;;;5039792;28;20277;-83
2022/12/17 15:37:28;;;;;;;34.90;27.70;;;-3.20;97.40;;;;;;5038204;28;20734;-84
2022/12/17 15:39:57;;;;;;;28.70;24.23;;;-3.30;98.20;;;;;;5042516;28;20220;-84
2022/12/17 15:45:07;;;;;;;29.40;23.47;;;-3.30;99.40;;;;;;5035345;28;20255;-83
2022/12/17 15:47:33;;;;;;;28.30;22.87;;;-3.40;99.60;;;;;;5026290;28;20192;-84
2022/12/17 15:49:59;;;;;;;33.43;22.10;;;-3.40;99.20;;;;;;5024632;28;20197;-86
2022/12/17 15:52:25;;;;;;;28.77;22.43;;;-3.40;99.20;;;;;;5025861;28;20589;-83
2022/12/17 15:54:50;;;;;;;32.37;22.43;;;-3.40;99.20;;;;;;5020625;28;20220;-85
2022/12/17 15:57:16;;;;;;;35.57;26.67;;;-3.50;99.90;;;;;;5019724;28;20204;-86
2022/12/17 15:59:41;;;;;;;33.20;24.27;;;-3.40;99.90;;;;;;5025088;28;20232;-85
2022/12/17 16:02:09;;;;;;;30.47;24.73;;;-3.40;99.90;;;;;;5024384;28;20868;-83
2022/12/17 16:04:36;;;;;;;31.67;24.00;;;-3.40;99.50;;;;;;5019009;28;20190;-83
2022/12/17 16:07:02;;;;;;;30.57;24.67;;;-3.40;99.90;;;;;;5022106;28;20754;-81
2022/12/17 16:09:28;;;;;;;28.07;23.30;;;-3.40;98.60;;;;;;5008478;28;20228;-83
2022/12/17 16:11:54;;;;;;;35.13;24.60;;;-3.50;98.40;;;;;;4998202;28;20376;-84
2022/12/17 16:14:20;;;;;;;31.77;23.67;;;-3.50;99.30;;;;;;5042168;28;20200;-83
2022/12/17 16:16:46;;;;;;;33.43;25.93;;;-3.50;99.50;;;;;;5040968;28;20589;-83
2022/12/17 16:19:13;;;;;;;37.67;26.57;;;-3.60;99.90;;;;;;5040009;28;20213;-84
2022/12/17 16:21:39;;;;;;;40.00;28.30;;;-3.80;99.80;;;;;;5044390;28;20223;-85
2022/12/17 16:24:05;;;;;;;36.17;27.30;;;-3.90;99.90;;;;;;5043167;28;20176;-84
2022/12/17 16:26:31;;;;;;;32.73;25.03;;;-4.00;99.90;;;;;;5037803;28;20670;-83
2022/12/17 16:28:57;;;;;;;34.70;24.10;;;-4.10;99.90;;;;;;5044359;28;20681;-85
2022/12/17 16:31:23;;;;;;;40.60;25.97;;;-4.20;99.90;;;;;;5045915;28;20226;-84
2022/12/17 16:33:49;;;;;;;32.97;24.27;;;-4.20;99.90;;;;;;5041884;28;20200;-85
2022/12/17 16:36:18;;;;;;;38.57;26.87;;;-4.20;99.90;;;;;;5041427;28;20212;-84
2022/12/17 16:38:52;;;;;;;41.33;27.93;;;-4.10;99.90;;;;;;5046477;28;20267;-84
2022/12/17 16:41:19;;;;;;;32.37;25.07;;;-4.20;99.90;;;;;;5045025;28;20188;-84
2022/12/17 16:43:46;;;;;;;36.97;26.77;;;-4.10;99.90;;;;;;5039836;28;20189;-83
2022/12/17 16:46:30;;;;;;;41.77;29.30;;;-4.10;99.90;;;;;;5043392;28;20300;-84
2022/12/17 16:48:57;;;;;;;39.57;28.13;;;-4.10;99.90;;;;;;5044469;28;20200;-83
2022/12/17 16:51:26;;;;;;;35.03;25.17;;;-4.20;99.90;;;;;;5046591;28;20199;-83
2022/12/17 16:53:51;;;;;;;41.73;29.17;;;-4.20;99.90;;;;;;5040062;28;20266;-82
2022/12/17 16:56:26;;;;;;;41.83;29.77;;;-4.10;99.90;;;;;;5038589;28;20213;-83
2022/12/17 16:58:53;;;;;;;36.53;27.37;;;-4.20;99.90;;;;;;5046180;28;20318;-80
2022/12/17 17:01:21;;;;;;;42.70;31.03;;;-4.20;99.90;;;;;;5042829;28;20212;-83
2022/12/17 17:03:47;;;;;;;42.83;31.27;;;-4.20;99.90;;;;;;5056455;28;20227;-81
2022/12/17 17:06:14;;;;;;;46.10;32.13;;;-4.30;99.90;;;;;;5041512;28;20311;-82
2022/12/17 17:08:40;;;;;;;41.03;29.10;;;-4.30;99.90;;;;;;4974119;28;163401;-84
2022/12/17 17:11:15;;;;;;;38.27;27.80;;;-4.30;99.90;;;;;;5040660;28;20418;-84
2022/12/17 17:13:41;;;;;;;40.10;26.67;;;-4.40;99.90;;;;;;5032541;28;20195;-82
2022/12/17 17:16:08;;;;;;;39.27;27.27;;;-4.40;99.90;;;;;;4999698;28;20281;-83
2022/12/17 17:18:35;;;;;;;34.77;25.03;;;-4.50;99.90;;;;;;5044458;28;20213;-83
2022/12/17 17:21:19;;;;;;;37.43;27.87;;;-4.40;99.90;;;;;;5031021;28;20216;-84
2022/12/17 17:23:46;;;;;;;42.27;27.83;;;-4.30;99.90;;;;;;5028558;28;20189;-84
2022/12/17 17:26:12;;;;;;;45.00;31.73;;;-4.30;99.90;;;;;;4983109;28;20260;-84
2022/12/17 17:28:38;;;;;;;52.53;34.00;;;-4.30;99.90;;;;;;5036568;28;20196;-84
2022/12/17 17:31:06;;;;;;;56.67;38.77;;;-4.40;99.80;;;;;;5032469;28;20193;-82
2022/12/17 17:33:35;;;;;;;44.83;31.67;;;-4.50;99.90;;;;;;5050118;28;20873;-86
2022/12/17 17:36:06;;;;;;;44.53;30.17;;;-4.60;99.90;;;;;;5032842;28;20224;-85
2022/12/17 17:38:33;;;;;;;52.57;35.83;;;-4.50;99.90;;;;;;5032763;28;20323;-85
2022/12/17 17:40:59;;;;;;;42.37;31.10;;;-4.50;99.90;;;;;;5032271;28;20239;-84
2022/12/17 17:43:25;;;;;;;45.53;32.20;;;-4.40;99.90;;;;;;5037436;28;20704;-83
2022/12/17 17:45:52;;;;;;;47.73;32.93;;;-4.30;99.90;;;;;;5030828;28;20217;-84
2022/12/17 17:48:18;;;;;;;52.70;37.00;;;-4.40;99.70;;;;;;5032186;28;20192;-81
2022/12/17 17:50:55;;;;;;;44.63;31.87;;;-4.40;99.30;;;;;;5031111;28;20192;-83
2022/12/17 17:53:20;;;;;;;67.17;47.33;;;-4.50;99.40;;;;;;5045308;28;20200;-83
2022/12/17 17:55:46;;;;;;;53.87;35.47;;;-4.50;99.70;;;;;;5029759;28;20205;-83
2022/12/17 17:58:15;;;;;;;47.43;31.50;;;-4.60;99.70;;;;;;5031250;28;20658;-83
2022/12/17 18:00:40;;;;;;;48.23;33.27;;;-4.70;99.90;;;;;;5035977;28;20681;-85
2022/12/17 18:03:06;;;;;;;49.30;31.93;;;-4.70;99.90;;;;;;5028746;28;20208;-81
2022/12/17 18:05:36;;;;;;;47.43;31.67;;;-4.60;99.90;;;;;;5036367;28;20212;-84
2022/12/17 18:08:02;;;;;;;45.37;31.07;;;-4.80;99.90;;;;;;5037173;28;20260;-84
2022/12/17 18:10:28;;;;;;;52.73;40.70;;;-4.70;99.90;;;;;;5040947;28;20219;-83
2022/12/17 18:15:38;;;;;;;53.23;39.03;;;-4.90;99.90;;;;;;5035954;28;20286;-84
2022/12/17 18:18:04;;;;;;;55.40;36.83;;;-4.90;99.90;;;;;;5039419;28;20185;-82
2022/12/17 18:20:29;;;;;;;54.63;37.60;;;-4.90;99.90;;;;;;5039335;28;20196;-84
2022/12/17 18:24:33;;;;;;;54.00;35.87;;;-4.90;99.90;;;;;;4979342;27;2694341;-84
2022/12/17 18:26:59;;;;;;;46.97;31.50;;;-4.90;99.90;;;;;;5089181;28;20215;-84
2022/12/17 18:29:27;;;;;;;53.77;34.67;;;-5.00;99.90;;;;;;5083463;28;20243;-83
2022/12/17 18:31:54;;;;;;;46.80;30.07;;;-5.10;99.90;;;;;;5066234;28;20296;-83
2022/12/17 18:34:22;;;;;;;47.63;34.20;;;-5.20;99.90;;;;;;5060988;28;20177;-85
2022/12/17 18:36:48;;;;;;;50.50;33.87;;;-5.20;99.90;;;;;;5064793;28;20216;-84
2022/12/17 18:39:18;;;;;;;49.53;30.83;;;-5.20;99.90;;;;;;5062636;28;20198;-82
2022/12/17 18:44:31;;;;;;;46.37;30.23;;;-5.30;99.90;;;;;;5067343;28;20364;-83
2022/12/17 18:46:57;;;;;;;41.83;29.87;;;-5.30;99.90;;;;;;5061133;28;20485;-84
2022/12/17 18:49:25;;;;;;;44.83;30.07;;;-5.20;99.90;;;;;;5061794;28;20189;-82
2022/12/17 18:51:51;;;;;;;46.60;30.43;;;-5.10;99.90;;;;;;5059362;28;20188;-82
2022/12/17 18:54:23;;;;;;;45.37;33.27;;;-5.00;99.90;;;;;;5067097;28;20188;-82
2022/12/17 18:56:49;;;;;;;44.57;29.97;;;-5.10;99.90;;;;;;5065323;28;20210;-82
2022/12/17 18:59:17;;;;;;;46.87;35.40;;;-5.10;99.30;;;;;;5068171;28;20183;-83
2022/12/17 19:01:44;;;;;;;46.20;32.17;;;-5.10;99.60;;;;;;5070110;28;20195;-82
2022/12/17 19:04:12;;;;;;;47.43;30.27;;;-5.00;99.70;;;;;;5063092;28;20215;-83
2022/12/17 19:06:38;;;;;;;42.10;29.90;;;-5.10;98.60;;;;;;5057128;28;20208;-81
2022/12/17 19:09:06;;;;;;;40.10;27.50;;;-5.10;99.50;;;;;;5061749;28;20176;-81
2022/12/17 19:11:32;;;;;;;44.63;30.87;;;-5.00;99.70;;;;;;5057816;28;20180;-83
2022/12/17 19:13:58;;;;;;;46.63;29.87;;;-5.10;97.90;;;;;;5063430;28;20251;-82
2022/12/17 19:16:26;;;;;;;38.63;26.20;;;-5.00;98.50;;;;;;5082643;28;20207;-85
2022/12/17 19:19:01;;;;;;;45.50;27.77;;;-5.10;97.00;;;;;;5073873;28;20176;-84
2022/12/17 19:21:27;;;;;;;41.87;29.10;;;-5.20;98.30;;;;;;5075953;28;20172;-86
2022/12/17 19:24:02;;;;;;;45.83;29.90;;;-5.30;99.50;;;;;;5076184;28;20211;-85
2022/12/17 19:26:28;;;;;;;41.87;30.03;;;-5.20;99.70;;;;;;5082082;28;20211;-85
2022/12/17 19:28:55;;;;;;;42.80;29.43;;;-5.10;98.80;;;;;;5079547;28;20188;-83
2022/12/17 19:31:23;;;;;;;44.50;30.03;;;-5.10;97.70;;;;;;5065368;28;20176;-81
2022/12/17 19:33:56;;;;;;;41.00;28.07;;;-5.10;96.80;;;;;;5065268;28;20210;-83
2022/12/17 19:36:23;;;;;;;41.07;27.50;;;-5.10;98.00;;;;;;5053961;28;20231;-82
2022/12/17 19:38:53;;;;;;;42.37;28.63;;;-5.00;97.10;;;;;;5051298;28;20193;-83
2022/12/17 19:41:20;;;;;;;36.00;27.27;;;-5.00;96.40;;;;;;5059802;28;20208;-83
2022/12/17 19:43:47;;;;;;;39.67;26.90;;;-5.00;96.20;;;;;;5059689;28;20207;-84
2022/12/17 19:46:16;;;;;;;41.73;28.17;;;-5.00;95.90;;;;;;5062736;28;20185;-85
2022/12/17 19:48:43;;;;;;;41.97;28.07;;;-5.10;95.60;;;;;;5065324;28;20240;-86
2022/12/17 19:51:11;;;;;;;45.40;27.77;;;-5.10;95.20;;;;;;5050209;28;20196;-82
2022/12/17 19:53:39;;;;;;;45.60;30.03;;;-5.30;95.30;;;;;;5054742;28;20210;-84
2022/12/17 19:56:14;;;;;;;44.33;28.60;;;-5.30;95.90;;;;;;5054197;28;20213;-84
2022/12/17 19:58:41;;;;;;;45.53;27.67;;;-5.30;97.10;;;;;;5057050;28;20570;-83
2022/12/17 20:01:07;;;;;;;41.70;27.27;;;-5.20;96.80;;;;;;5049630;28;20184;-84
2022/12/17 20:03:34;;;;;;;41.27;29.43;;;-5.20;96.40;;;;;;5051559;28;20215;-85
2022/12/17 20:05:59;;;;;;;37.57;27.00;;;-5.10;96.90;;;;;;5045700;28;20236;-84
2022/12/17 20:08:29;;;;;;;47.47;28.93;;;-5.20;95.20;;;;;;5049314;28;20325;-82
2022/12/17 20:10:55;;;;;;;41.07;28.00;;;-5.30;94.80;;;;;;5057579;28;20198;-83
2022/12/17 20:13:21;;;;;;;43.03;28.57;;;-5.30;95.80;;;;;;5053079;28;20260;-83
2022/12/17 20:15:46;;;;;;;43.53;29.57;;;-5.20;95.10;;;;;;5052522;28;20209;-83
2022/12/17 20:18:12;;;;;;;40.17;27.57;;;-5.20;95.50;;;;;;5061409;28;20237;-85
2022/12/17 20:20:38;;;;;;;38.33;26.60;;;-5.20;95.30;;;;;;5056811;28;20681;-82
2022/12/17 20:23:03;;;;;;;36.97;26.60;;;-5.30;94.90;;;;;;5054746;28;20231;-82
2022/12/17 20:25:29;;;;;;;42.87;28.13;;;-5.20;96.00;;;;;;5052581;28;20209;-80
2022/12/17 20:27:54;;;;;;;41.97;29.57;;;-5.20;94.60;;;;;;5054865;28;20780;-84
2022/12/17 20:30:24;;;;;;;39.73;26.67;;;-5.20;93.90;;;;;;5048242;28;20740;-83
2022/12/17 20:32:52;;;;;;;43.23;28.40;;;-5.40;95.80;;;;;;5050003;28;20188;-83
2022/12/17 20:35:18;;;;;;;50.67;33.93;;;-5.30;96.00;;;;;;5055324;28;20204;-83
2022/12/17 20:37:44;;;;;;;48.57;30.93;;;-5.30;94.80;;;;;;5054116;28;20219;-84
2022/12/17 20:40:10;;;;;;;45.80;29.77;;;-5.40;94.40;;;;;;5059232;28;20184;-83
2022/12/17 20:42:35;;;;;;;43.93;30.60;;;-5.50;94.70;;;;;;5043201;28;20621;-84
2022/12/17 20:45:01;;;;;;;45.67;29.57;;;-5.50;95.90;;;;;;5041208;28;20655;-84
2022/12/17 20:47:27;;;;;;;45.33;29.30;;;-5.60;96.60;;;;;;5049353;28;20761;-81
2022/12/17 20:49:52;;;;;;;48.57;29.13;;;-5.60;96.70;;;;;;5049834;28;20200;-83
2022/12/17 20:52:18;;;;;;;45.37;28.67;;;-5.60;96.50;;;;;;5051934;28;20271;-83
2022/12/17 20:54:44;;;;;;;40.67;27.70;;;-5.70;96.30;;;;;;5056558;28;20188;-84
2022/12/17 20:57:09;;;;;;;39.83;28.30;;;-5.70;97.60;;;;;;5053729;28;20204;-83
2022/12/17 20:59:35;;;;;;;39.97;28.00;;;-5.50;98.20;;;;;;5047102;28;20184;-81
2022/12/17 21:02:01;;;;;;;38.40;26.53;;;-5.30;97.30;;;;;;5050636;28;20187;-83
2022/12/17 21:04:27;;;;;;;35.70;25.27;;;-5.30;96.70;;;;;;5035183;28;20848;-83
2022/12/17 21:06:52;;;;;;;39.33;27.47;;;-5.20;96.30;;;;;;5057416;28;20259;-85
2022/12/17 21:09:19;;;;;;;40.20;27.57;;;-5.20;95.10;;;;;;5050254;28;20188;-82
2022/12/17 21:11:45;;;;;;;35.87;26.93;;;-5.20;94.20;;;;;;5055062;28;20173;-82
2022/12/17 21:14:14;;;;;;;38.50;27.30;;;-5.20;94.20;;;;;;5055533;28;20220;-83
2022/12/17 21:16:40;;;;;;;36.27;26.97;;;-5.10;95.60;;;;;;5049942;28;20217;-83
2022/12/17 21:19:08;;;;;;;42.20;28.37;;;-5.10;94.00;;;;;;5056648;28;20193;-83
2022/12/17 21:21:36;;;;;;;43.53;30.40;;;-5.00;93.80;;;;;;5053030;28;20216;-84
2022/12/17 21:24:02;;;;;;;39.63;28.23;;;-5.00;93.10;;;;;;5051059;28;20247;-83
2022/12/17 21:26:36;;;;;;;38.57;27.50;;;-5.00;93.80;;;;;;5055882;28;20226;-82
2022/12/17 21:29:04;;;;;;;38.10;27.80;;;-4.90;93.20;;;;;;5051455;28;20176;-83
2022/12/17 21:31:33;;;;;;;37.80;26.43;;;-4.90;92.10;;;;;;5046619;28;20195;-85
2022/12/17 21:34:01;;;;;;;42.37;28.87;;;-4.80;92.70;;;;;;5036856;28;20698;-82
2022/12/17 21:36:29;;;;;;;34.00;25.20;;;-4.70;92.40;;;;;;5054020;28;20820;-82
2022/12/17 21:38:56;;;;;;;37.13;28.47;;;-4.80;91.10;;;;;;5051484;28;20185;-83
2022/12/17 21:41:24;;;;;;;42.63;27.00;;;-4.90;90.10;;;;;;5049693;28;20216;-83
2022/12/17 21:43:58;;;;;;;39.73;26.20;;;-5.00;90.40;;;;;;5039237;28;20429;-83
2022/12/17 21:46:28;;;;;;;35.97;25.77;;;-4.90;91.70;;;;;;5028466;28;20230;-82
2022/12/17 21:48:55;;;;;;;37.73;27.40;;;-4.90;91.80;;;;;;5046901;28;20284;-84
2022/12/17 21:51:21;;;;;;;39.73;28.33;;;-4.80;91.20;;;;;;5050795;28;20193;-83
2022/12/17 21:53:50;;;;;;;42.50;27.73;;;-4.80;90.50;;;;;;5047569;28;20463;-82
2022/12/17 21:56:17;;;;;;;38.73;26.40;;;-4.80;89.80;;;;;;5049025;28;20951;-82
2022/12/17 21:58:44;;;;;;;35.13;26.67;;;-4.80;89.60;;;;;;5047581;28;20196;-84
2022/12/17 22:01:21;;;;;;;37.13;26.17;;;-4.80;89.70;;;;;;5054955;28;20199;-83
2022/12/17 22:03:48;;;;;;;38.70;27.33;;;-4.80;88.80;;;;;;5058076;28;20225;-83
2022/12/17 22:06:17;;;;;;;40.33;28.47;;;-4.80;88.80;;;;;;5045359;28;20718;-85
2022/12/17 22:08:44;;;;;;;40.07;26.23;;;-4.80;88.00;;;;;;5049151;28;20279;-83
2022/12/17 22:11:16;;;;;;;37.97;26.70;;;-4.80;88.50;;;;;;5048923;28;20185;-83
2022/12/17 22:14:01;;;;;;;37.20;26.00;;;-4.70;88.70;;;;;;5051633;28;20204;-84
2022/12/17 22:16:30;;;;;;;32.27;24.27;;;-4.70;88.30;;;;;;5052099;28;20232;-82
2022/12/17 22:18:57;;;;;;;37.80;24.90;;;-4.80;86.30;;;;;;5051755;28;20199;-82
2022/12/17 22:21:23;;;;;;;35.07;24.67;;;-4.80;87.50;;;;;;5047450;28;20270;-83
2022/12/17 22:23:48;;;;;;;33.43;25.63;;;-4.80;87.90;;;;;;5046928;28;20212;-81
2022/12/17 22:26:16;;;;;;;35.53;24.80;;;-4.90;86.70;;;;;;5053053;28;20220;-83
2022/12/17 22:28:43;;;;;;;36.30;24.87;;;-4.90;86.60;;;;;;5042637;28;20204;-84
2022/12/17 22:33:57;;;;;;;30.63;22.63;;;-4.90;87.60;;;;;;5056332;28;20207;-82
2022/12/17 22:36:23;;;;;;;32.20;24.27;;;-4.80;87.30;;;;;;5035396;28;20254;-83
2022/12/17 22:38:48;;;;;;;34.50;23.57;;;-4.80;86.80;;;;;;5047710;28;20204;-81
2022/12/17 22:43:28;;;;;;;34.37;23.97;;;-4.80;86.20;;;;;;5045077;28;20534;-81
2022/12/17 22:44:01;;;;;;;34.10;23.13;;;-4.80;85.30;;;;;;5050674;28;20224;-82
2022/12/17 22:46:30;;;;;;;35.77;24.27;;;-4.90;85.10;;;;;;5051161;28;20208;-84
2022/12/17 22:48:57;;;;;;;36.73;23.50;;;-5.00;85.50;;;;;;5052158;28;20250;-82
2022/12/17 22:51:24;;;;;;;32.90;23.47;;;-4.90;87.80;;;;;;5038229;28;20193;-82
2022/12/17 22:53:50;;;;;;;35.13;23.73;;;-5.10;85.40;;;;;;5049717;28;20193;-83
2022/12/17 22:56:16;;;;;;;34.63;23.07;;;-5.20;84.80;;;;;;5045646;28;20205;-82
2022/12/17 22:58:42;;;;;;;34.70;23.00;;;-5.20;86.00;;;;;;5053334;28;20180;-81
2022/12/17 23:01:08;;;;;;;36.57;24.13;;;-5.20;87.20;;;;;;5055599;28;20244;-84
2022/12/17 23:03:33;;;;;;;33.60;24.27;;;-5.20;87.60;;;;;;5057791;28;20200;-84
2022/12/17 23:06:14;;;;;;;38.87;24.57;;;-5.10;88.80;;;;;;5057211;28;20211;-81
2022/12/17 23:08:40;;;;;;;34.90;24.70;;;-5.00;88.20;;;;;;5057318;28;20184;-83
2022/12/17 23:11:15;;;;;;;32.47;22.77;;;-5.00;87.50;;;;;;5065807;28;20187;-81
2022/12/17 23:13:41;;;;;;;34.17;22.93;;;-4.90;87.50;;;;;;5052640;28;20196;-81
2022/12/17 23:16:08;;;;;;;33.03;23.20;;;-4.80;86.80;;;;;;5057349;28;20260;-83
2022/12/17 23:18:34;;;;;;;34.27;24.77;;;-4.90;86.80;;;;;;5048876;28;20204;-83
2022/12/17 23:21:14;;;;;;;31.97;22.83;;;-5.00;85.80;;;;;;5053530;28;20264;-83
2022/12/17 23:23:43;;;;;;;34.80;21.47;;;-4.90;87.70;;;;;;5057424;28;20236;-83
2022/12/17 23:26:18;;;;;;;33.30;22.63;;;-4.90;88.00;;;;;;5056159;28;20208;-83
2022/12/17 23:28:44;;;;;;;27.97;21.57;;;-4.90;87.90;;;;;;5053968;28;20184;-82
2022/12/17 23:31:13;;;;;;;39.63;24.40;;;-4.90;88.00;;;;;;5059538;28;20191;-82
2022/12/17 23:33:39;;;;;;;35.27;23.87;;;-4.90;86.50;;;;;;5047414;28;20204;-82
2022/12/17 23:36:11;;;;;;;33.87;23.97;;;-4.90;88.60;;;;;;5055562;28;20216;-83
2022/12/17 23:38:37;;;;;;;31.93;23.83;;;-5.00;87.20;;;;;;5052410;28;20654;-82
2022/12/17 23:41:17;;;;;;;28.23;22.20;;;-5.00;87.40;;;;;;5051871;28;20196;-82
2022/12/17 23:43:43;;;;;;;31.97;23.23;;;-5.00;87.10;;;;;;5060298;28;20206;-82
2022/12/17 23:46:10;;;;;;;29.77;21.90;;;-5.00;87.30;;;;;;5057486;28;20269;-80
2022/12/17 23:48:38;;;;;;;31.67;24.30;;;-4.90;86.50;;;;;;5057780;28;20199;-81
2022/12/17 23:51:04;;;;;;;33.07;22.70;;;-5.00;85.90;;;;;;5054904;28;20591;-82
2022/12/17 23:53:31;;;;;;;33.40;23.20;;;-5.00;86.80;;;;;;5055161;28;20197;-81
2022/12/17 23:56:13;;;;;;;31.00;22.93;;;-4.90;86.80;;;;;;5051654;28;20235;-83
2022/12/17 23:58:40;;;;;;;35.00;23.17;;;-4.90;86.70;;;;;;5051708;28;20200;-82
